Time;durP1;ratioP1;P1;durP2;ratioP2;P2;SDS_P1;SDS_P2;PMS_P1;PMS_P2;Temp;Humidity;BMP_temperature;BMP_pressure;BME280_temperature;BME280_humidity;BME280_pressure;Samples;Min_cycle;Max_cycle;Signal;HPM_P1;HPM_P2
2022/08/24 00:00:11;;;;;;;8.43;7.63;;;;;;;24.48;82.44;99093.56;5012958;28;20199;-71
2022/08/24 00:02:40;;;;;;;10.40;9.40;;;;;;;24.30;82.03;99091.66;5012859;28;20181;-71
2022/08/24 00:05:07;;;;;;;8.57;7.23;;;;;;;24.17;84.55;99075.28;5012335;28;20192;-70
2022/08/24 00:07:36;;;;;;;8.53;7.83;;;;;;;24.28;83.71;99076.75;5012558;28;20197;-71
2022/08/24 00:10:04;;;;;;;8.57;7.97;;;;;;;24.46;82.33;99073.25;5012388;28;20754;-70
2022/08/24 00:12:31;;;;;;;9.77;8.77;;;;;;;24.62;81.90;99088.19;5012272;28;20667;-71
2022/08/24 00:14:58;;;;;;;8.53;7.67;;;;;;;24.79;80.50;99102.84;5012016;28;20256;-71
2022/08/24 00:17:25;;;;;;;9.53;8.57;;;;;;;24.85;79.54;99098.94;5012488;28;20251;-70
2022/08/24 00:19:53;;;;;;;14.23;8.07;;;;;;;24.99;79.54;99109.81;5012459;28;20614;-71
2022/08/24 00:22:20;;;;;;;8.67;7.97;;;;;;;25.13;77.91;99098.97;5012024;28;20732;-71
2022/08/24 00:24:47;;;;;;;8.67;7.77;;;;;;;25.15;77.82;99092.13;5012744;28;20197;-71
2022/08/24 00:27:13;;;;;;;9.90;9.00;;;;;;;25.21;77.29;99092.84;5012021;28;20247;-71
2022/08/24 00:29:40;;;;;;;9.03;8.07;;;;;;;25.28;77.01;99096.03;5012322;28;20236;-72
2022/08/24 00:32:07;;;;;;;8.80;8.20;;;;;;;25.34;77.28;99095.63;5012451;28;20198;-72
2022/08/24 00:34:35;;;;;;;12.70;8.90;;;;;;;25.32;76.98;99097.84;5013304;28;20631;-72
2022/08/24 00:37:03;;;;;;;7.27;6.77;;;;;;;25.34;77.09;99105.69;5011967;28;20212;-71
2022/08/24 00:39:30;;;;;;;8.53;7.83;;;;;;;25.38;76.27;99099.34;5012443;28;20194;-71
2022/08/24 00:41:57;;;;;;;8.23;7.50;;;;;;;25.43;75.76;99098.47;5013462;28;20790;-71
2022/08/24 00:44:23;;;;;;;8.53;7.83;;;;;;;25.37;75.34;99099.66;5016510;28;20205;-71
2022/08/24 00:46:55;;;;;;;7.60;6.97;;;;;;;25.31;76.92;99103.59;5016674;28;20204;-71
2022/08/24 00:49:27;;;;;;;7.80;7.27;;;;;;;25.22;76.88;99102.63;5016068;28;20649;-71
2022/08/24 00:52:02;;;;;;;7.73;7.07;;;;;;;25.17;77.44;99105.44;5016388;28;20186;-71
2022/08/24 00:54:33;;;;;;;9.00;7.17;;;;;;;25.22;76.42;99098.00;5016282;28;20276;-72
2022/08/24 00:57:04;;;;;;;8.70;7.40;;;;;;;25.22;76.73;99105.34;5016090;28;20193;-72
2022/08/24 00:59:36;;;;;;;6.97;6.37;;;;;;;25.23;76.25;99098.81;5015853;28;20653;-72
2022/08/24 01:02:08;;;;;;;7.73;6.97;;;;;;;25.25;76.00;99112.91;5015233;28;20213;-71
2022/08/24 01:04:41;;;;;;;8.07;7.30;;;;;;;25.30;75.13;99107.38;4996122;28;20187;-72
2022/08/24 01:07:08;;;;;;;8.43;7.77;;;;;;;25.26;74.34;99109.88;5005568;28;20252;-72
2022/08/24 01:09:36;;;;;;;8.33;7.70;;;;;;;25.18;74.70;99112.50;5016442;28;20198;-72
2022/08/24 01:12:04;;;;;;;7.47;6.83;;;;;;;25.06;76.98;99101.31;5015494;28;20255;-72
2022/08/24 01:14:31;;;;;;;7.40;6.80;;;;;;;24.97;77.48;99106.63;5016370;28;20193;-72
2022/08/24 01:19:47;;;;;;;8.83;8.17;;;;;;;24.57;78.08;99101.81;5015806;28;20185;-71
2022/08/24 01:22:33;;;;;;;8.67;8.00;;;;;;;24.34;79.08;99103.53;5015392;28;20228;-71
2022/08/24 01:25:01;;;;;;;8.40;7.67;;;;;;;24.23;79.54;99110.25;5015602;28;20189;-72
2022/08/24 01:27:29;;;;;;;8.43;7.60;;;;;;;24.11;80.75;99109.88;5015530;28;20258;-72
2022/08/24 01:29:58;;;;;;;9.03;8.23;;;;;;;24.04;80.70;99114.84;5015613;28;20654;-72
2022/08/24 01:32:27;;;;;;;16.27;8.47;;;;;;;23.97;81.77;99122.53;5015034;28;20200;-72
2022/08/24 01:34:54;;;;;;;8.83;8.23;;;;;;;23.88;81.56;99129.69;5015391;28;20571;-72
2022/08/24 01:37:21;;;;;;;8.77;8.00;;;;;;;23.79;82.10;99128.72;5015084;28;20751;-71
2022/08/24 01:39:51;;;;;;;9.60;8.60;;;;;;;23.64;84.02;99123.47;5015269;28;20206;-72
2022/08/24 01:42:19;;;;;;;12.90;8.47;;;;;;;23.50;83.44;99135.28;5015744;28;20216;-71
2022/08/24 01:44:46;;;;;;;9.33;8.53;;;;;;;23.41;84.35;99137.84;5015808;28;20273;-71
2022/08/24 01:47:16;;;;;;;12.80;8.83;;;;;;;23.29;84.65;99123.88;5014955;28;20499;-71
2022/08/24 01:49:46;;;;;;;10.60;9.67;;;;;;;23.14;85.68;99126.69;5015185;28;20191;-72
2022/08/24 01:52:17;;;;;;;10.40;9.30;;;;;;;22.99;86.52;99126.03;5015237;28;20201;-71
2022/08/24 01:54:44;;;;;;;8.77;7.77;;;;;;;23.00;88.53;99128.47;5015570;28;20190;-71
2022/08/24 01:57:11;;;;;;;9.60;8.90;;;;;;;23.19;86.16;99123.94;5014908;28;20260;-70
2022/08/24 01:59:40;;;;;;;11.17;9.50;;;;;;;23.16;86.34;99129.91;5014977;28;20195;-71
2022/08/24 02:02:14;;;;;;;10.43;9.40;;;;;;;23.03;87.20;99122.47;5014446;28;20272;-71
2022/08/24 02:04:41;;;;;;;9.90;8.80;;;;;;;23.02;88.49;99129.00;5014557;28;20555;-71
2022/08/24 02:07:08;;;;;;;11.80;9.47;;;;;;;23.17;86.51;99126.13;5014901;28;20191;-70
2022/08/24 02:09:35;;;;;;;10.07;9.23;;;;;;;23.17;86.52;99126.13;5014287;28;20642;-71
2022/08/24 02:12:02;;;;;;;10.67;9.80;;;;;;;23.23;87.34;99130.44;5014450;28;20742;-71
2022/08/24 02:14:29;;;;;;;11.80;10.67;;;;;;;23.29;85.91;99123.06;5014346;28;20764;-71
2022/08/24 02:16:57;;;;;;;10.30;9.27;;;;;;;23.19;87.96;99113.09;5014585;28;20199;-70
2022/08/24 02:19:25;;;;;;;9.50;8.50;;;;;;;23.21;87.60;99121.78;5014547;28;20235;-71
2022/08/24 02:21:52;;;;;;;10.33;9.40;;;;;;;23.29;86.09;99126.59;5014177;28;20277;-70
2022/08/24 02:24:18;;;;;;;9.30;8.43;;;;;;;23.47;86.27;99128.56;5014765;28;20587;-71
2022/08/24 02:26:45;;;;;;;9.37;8.40;;;;;;;23.63;85.49;99124.56;5014126;28;20195;-71
2022/08/24 02:29:12;;;;;;;11.43;10.23;;;;;;;23.67;83.27;99125.59;5014408;28;20232;-71
2022/08/24 02:31:38;;;;;;;10.73;9.80;;;;;;;23.69;83.26;99117.19;5014273;28;20254;-71
2022/08/24 02:34:07;;;;;;;9.77;9.00;;;;;;;23.63;84.95;99119.16;5013993;28;20722;-71
2022/08/24 02:36:34;;;;;;;10.20;9.20;;;;;;;23.74;84.88;99125.25;5013936;28;20200;-71
2022/08/24 02:39:01;;;;;;;11.07;10.10;;;;;;;23.96;82.62;99128.25;5014072;28;20202;-71
2022/08/24 02:41:28;;;;;;;10.70;9.60;;;;;;;24.04;82.00;99131.13;5013800;28;20277;-71
2022/08/24 02:43:56;;;;;;;9.83;8.90;;;;;;;24.13;82.32;99132.09;5013990;28;20594;-71
2022/08/24 02:46:25;;;;;;;10.03;9.33;;;;;;;24.17;80.60;99141.25;5013834;28;20198;-71
2022/08/24 02:48:52;;;;;;;10.30;9.30;;;;;;;24.09;81.81;99141.91;5013737;28;20737;-71
2022/08/24 02:51:22;;;;;;;11.00;10.00;;;;;;;24.09;81.97;99144.63;5013974;28;20251;-71
2022/08/24 02:53:49;;;;;;;12.20;9.43;;;;;;;24.17;81.71;99141.25;5014196;28;20192;-71
2022/08/24 02:56:17;;;;;;;11.17;10.27;;;;;;;24.29;80.60;99143.53;5013905;28;20361;-71
2022/08/24 02:58:44;;;;;;;10.33;9.40;;;;;;;24.39;79.59;99144.19;5013940;28;20197;-73
2022/08/24 03:01:11;;;;;;;11.40;10.20;;;;;;;24.42;79.38;99151.75;5013644;28;20256;-73
2022/08/24 03:03:39;;;;;;;11.20;10.20;;;;;;;24.38;79.36;99153.44;5013278;28;20260;-73
2022/08/24 03:06:07;;;;;;;10.13;9.17;;;;;;;24.32;80.07;99157.34;5013124;28;20197;-73
2022/08/24 03:08:36;;;;;;;16.10;10.53;;;;;;;24.32;79.69;99160.06;5013647;28;20200;-73
2022/08/24 03:11:06;;;;;;;10.47;9.40;;;;;;;24.31;79.90;99169.31;5013659;28;20193;-73
2022/08/24 03:13:34;;;;;;;12.80;10.30;;;;;;;24.29;80.56;99166.06;5013508;28;20567;-73
2022/08/24 03:16:01;;;;;;;20.93;11.43;;;;;;;24.28;80.32;99159.03;5014083;28;20192;-72
2022/08/24 03:18:28;;;;;;;12.97;9.87;;;;;;;24.31;80.18;99171.22;5013343;28;20196;-71
2022/08/24 03:20:55;;;;;;;13.03;9.60;;;;;;;24.16;81.46;99165.97;5013676;28;20200;-70
2022/08/24 03:23:23;;;;;;;11.37;9.30;;;;;;;24.31;81.16;99166.59;5012924;28;20746;-70
2022/08/24 03:25:51;;;;;;;10.63;9.50;;;;;;;24.41;80.58;99168.34;5013576;28;20247;-71
2022/08/24 03:28:18;;;;;;;13.90;9.03;;;;;;;24.32;81.01;99176.34;5012789;28;20689;-72
2022/08/24 03:30:45;;;;;;;9.97;9.00;;;;;;;24.30;81.18;99170.38;5014114;28;20280;-72
2022/08/24 03:33:12;;;;;;;12.20;10.03;;;;;;;24.26;81.68;99165.84;5013258;28;20201;-72
2022/08/24 03:35:39;;;;;;;13.93;9.53;;;;;;;24.25;81.85;99175.91;5013243;28;20193;-72
2022/08/24 03:38:06;;;;;;;10.73;9.63;;;;;;;24.52;80.82;99181.50;5013197;28;20264;-73
2022/08/24 03:40:33;;;;;;;11.30;9.30;;;;;;;24.68;80.17;99180.19;5013195;28;20730;-72
2022/08/24 03:43:02;;;;;;;13.63;9.03;;;;;;;24.58;80.29;99180.31;5012656;28;20275;-73
2022/08/24 03:45:30;;;;;;;12.57;9.00;;;;;;;24.55;80.39;99180.09;5012670;28;20196;-72
2022/08/24 03:47:57;;;;;;;10.13;9.13;;;;;;;24.57;80.39;99177.88;5012683;28;20201;-73
2022/08/24 03:50:24;;;;;;;10.40;9.37;;;;;;;24.76;79.69;99176.81;5012842;28;20190;-72
2022/08/24 03:52:51;;;;;;;9.67;8.67;;;;;;;24.96;78.33;99181.91;5013205;28;20271;-72
2022/08/24 03:55:18;;;;;;;9.73;8.00;;;;;;;25.08;77.94;99183.34;5012469;28;20196;-72
2022/08/24 03:57:45;;;;;;;13.10;9.13;;;;;;;25.08;77.97;99176.81;5012408;28;20194;-72
2022/08/24 04:00:15;;;;;;;10.27;8.17;;;;;;;25.06;77.63;99174.69;5012615;28;20201;-72
2022/08/24 04:02:43;;;;;;;9.00;8.10;;;;;;;25.07;77.22;99179.81;5012727;28;20276;-72
2022/08/24 04:05:11;;;;;;;8.70;7.70;;;;;;;25.11;76.76;99188.22;5012609;28;20194;-72
2022/08/24 04:07:37;;;;;;;17.30;9.17;;;;;;;25.02;77.08;99179.91;5012521;28;20200;-72
2022/08/24 04:10:05;;;;;;;10.73;9.20;;;;;;;25.10;76.68;99186.59;5012714;28;20255;-72
2022/08/24 04:12:31;;;;;;;19.30;10.23;;;;;;;25.14;76.32;99193.06;5012340;28;20240;-72
2022/08/24 04:14:58;;;;;;;11.23;9.73;;;;;;;25.26;76.79;99186.03;5012382;28;20205;-73
2022/08/24 04:17:27;;;;;;;19.17;9.73;;;;;;;25.40;76.60;99180.66;5012281;28;20588;-73
2022/08/24 04:20:00;;;;;;;11.00;10.00;;;;;;;25.60;75.11;99185.72;5012240;28;20242;-72
2022/08/24 04:22:28;;;;;;;16.50;9.57;;;;;;;25.87;74.65;99183.00;5012445;28;20561;-73
2022/08/24 04:24:56;;;;;;;11.03;9.67;;;;;;;25.97;73.67;99194.50;5012454;28;20198;-73
2022/08/24 04:27:23;;;;;;;11.70;9.37;;;;;;;26.03;73.31;99195.22;5012372;28;20202;-73
2022/08/24 04:29:50;;;;;;;16.07;10.17;;;;;;;26.11;72.23;99183.63;5011934;28;20225;-72
2022/08/24 04:32:16;;;;;;;19.47;9.67;;;;;;;26.32;71.54;99198.41;5012074;28;20198;-72
2022/08/24 04:34:45;;;;;;;15.30;8.93;;;;;;;26.28;72.39;99197.41;5012283;28;20281;-72
2022/08/24 04:37:13;;;;;;;10.53;9.23;;;;;;;26.28;72.36;99191.94;5012371;28;20190;-72
2022/08/24 04:39:40;;;;;;;17.50;10.53;;;;;;;26.45;70.60;99200.31;5012122;28;20281;-72
2022/08/24 04:42:08;;;;;;;9.43;8.63;;;;;;;26.45;70.81;99208.50;5012239;28;20233;-72
2022/08/24 04:44:35;;;;;;;15.03;10.30;;;;;;;26.50;70.30;99211.09;5011800;28;20248;-72
2022/08/24 04:47:01;;;;;;;15.27;11.57;;;;;;;26.41;69.65;99213.72;5012257;28;20194;-72
2022/08/24 04:49:28;;;;;;;12.40;11.10;;;;;;;26.16;71.48;99217.00;5012225;28;20225;-72
2022/08/24 04:51:57;;;;;;;18.57;11.13;;;;;;;26.00;71.89;99209.47;5012098;28;20206;-72
2022/08/24 04:54:25;;;;;;;9.47;8.63;;;;;;;25.94;72.76;99207.94;5012864;28;20194;-72
2022/08/24 04:56:51;;;;;;;12.13;10.27;;;;;;;25.81;73.21;99203.25;5011783;28;20605;-72
2022/08/24 04:59:18;;;;;;;11.50;9.90;;;;;;;25.67;72.94;99208.69;5012208;28;20360;-72
2022/08/24 05:01:45;;;;;;;10.37;9.17;;;;;;;25.62;73.88;99200.63;5011530;28;20201;-72
2022/08/24 05:04:12;;;;;;;19.20;11.60;;;;;;;25.68;73.13;99204.84;4994262;28;20257;-71
2022/08/24 05:06:41;;;;;;;11.47;9.07;;;;;;;25.68;73.52;99210.28;4991926;28;20261;-72
2022/08/24 05:09:09;;;;;;;11.20;10.07;;;;;;;25.70;74.25;99207.28;4991862;28;20199;-72
2022/08/24 05:11:39;;;;;;;22.00;10.17;;;;;;;25.77;74.24;99210.41;4991899;28;20261;-72
2022/08/24 05:14:05;;;;;;;15.73;10.77;;;;;;;25.82;73.72;99205.69;4992408;28;20210;-71
2022/08/24 05:16:36;;;;;;;15.70;12.00;;;;;;;25.76;74.10;99195.19;4991797;28;20206;-73
2022/08/24 05:19:05;;;;;;;13.37;11.83;;;;;;;25.67;74.33;99205.97;4991893;28;20191;-72
2022/08/24 05:21:33;;;;;;;19.07;10.53;;;;;;;25.60;75.15;99196.59;4992085;28;20198;-72
2022/08/24 05:23:59;;;;;;;11.47;10.07;;;;;;;25.52;75.33;99200.00;4991707;28;20222;-72
2022/08/24 05:26:29;;;;;;;14.40;10.13;;;;;;;25.54;74.91;99204.03;4991859;28;20195;-71
2022/08/24 05:28:58;;;;;;;12.93;10.20;;;;;;;25.61;74.67;99207.19;4997353;28;20301;-72
2022/08/24 05:31:29;;;;;;;9.40;8.60;;;;;;;25.58;75.11;99194.19;5003063;28;20244;-72
2022/08/24 05:33:56;;;;;;;15.30;10.40;;;;;;;25.52;74.94;99189.91;5000548;28;20256;-72
2022/08/24 05:36:26;;;;;;;15.80;12.00;;;;;;;25.36;75.42;99195.94;5005621;28;20197;-72
2022/08/24 05:38:55;;;;;;;14.00;10.37;;;;;;;25.18;76.43;99192.16;5004923;28;20195;-72
2022/08/24 05:41:22;;;;;;;11.00;9.80;;;;;;;25.08;76.29;99194.22;5003771;28;20260;-70
2022/08/24 05:43:51;;;;;;;16.27;10.73;;;;;;;25.02;77.54;99195.44;5005292;28;20590;-71
2022/08/24 05:46:18;;;;;;;11.40;10.30;;;;;;;25.00;78.29;99199.22;5004175;28;20196;-70
2022/08/24 05:48:45;;;;;;;18.60;10.00;;;;;;;24.98;77.51;99188.97;5000795;28;20622;-69
2022/08/24 05:51:12;;;;;;;17.27;10.70;;;;;;;25.02;77.27;99195.44;4995264;28;20202;-70
2022/08/24 05:53:40;;;;;;;14.77;10.23;;;;;;;24.95;77.49;99191.16;4995398;28;20206;-68
2022/08/24 05:56:09;;;;;;;11.70;10.60;;;;;;;24.90;78.06;99193.97;4996660;28;20193;-67
2022/08/24 05:58:37;;;;;;;10.07;9.10;;;;;;;24.86;78.57;99192.94;4999227;28;20201;-68
2022/08/24 06:01:10;;;;;;;14.10;10.57;;;;;;;24.97;77.75;99193.59;5014510;28;20193;-68
2022/08/24 06:03:37;;;;;;;14.77;10.93;;;;;;;24.98;78.13;99199.84;5014253;28;20732;-68
2022/08/24 06:06:06;;;;;;;12.33;9.00;;;;;;;25.00;77.48;99190.28;5014508;28;20264;-65
2022/08/24 06:08:35;;;;;;;13.40;9.07;;;;;;;25.16;76.80;99191.66;5014719;28;20281;-68
2022/08/24 06:11:01;;;;;;;13.83;9.10;;;;;;;25.39;75.82;99198.06;4996093;28;20203;-71
2022/08/24 06:13:28;;;;;;;15.23;10.30;;;;;;;25.49;75.37;99187.00;4994910;28;20257;-70
2022/08/24 06:16:04;;;;;;;21.10;9.93;;;;;;;25.48;76.66;99188.91;4994836;28;20264;-71
2022/08/24 06:18:32;;;;;;;11.13;9.47;;;;;;;25.50;75.73;99194.88;5005585;28;20196;-73
2022/08/24 06:20:59;;;;;;;17.73;9.50;;;;;;;25.52;75.31;99200.00;5012429;28;20206;-70
2022/08/24 06:23:25;;;;;;;14.80;8.93;;;;;;;25.57;75.56;99189.84;5013286;28;20296;-71
2022/08/24 06:28:36;;;;;;;12.63;8.93;;;;;;;25.86;74.88;99201.25;5014259;28;20228;-70
2022/08/24 06:31:04;;;;;;;17.27;8.53;;;;;;;26.03;73.95;99206.91;5014571;28;20190;-70
2022/08/24 06:33:32;;;;;;;11.90;8.60;;;;;;;26.16;73.48;99205.28;5009021;28;20264;-69
2022/08/24 06:35:59;;;;;;;12.63;9.00;;;;;;;26.28;72.24;99209.13;5011332;28;20321;-74
2022/08/24 06:38:26;;;;;;;9.63;8.67;;;;;;;26.35;72.73;99208.69;5012872;28;20584;-70
2022/08/24 06:40:53;;;;;;;11.47;8.73;;;;;;;26.42;72.17;99209.88;5011182;28;20194;-70
2022/08/24 06:43:19;;;;;;;14.00;8.43;;;;;;;26.41;72.79;99210.22;5013824;28;20226;-71
2022/08/24 06:45:46;;;;;;;12.33;8.17;;;;;;;26.45;72.18;99213.94;5011897;28;20357;-71
2022/08/24 06:48:13;;;;;;;13.20;9.20;;;;;;;26.51;71.77;99212.69;5012166;28;20198;-73
2022/08/24 06:50:42;;;;;;;10.27;8.90;;;;;;;26.42;72.21;99211.81;5010686;28;20669;-69
2022/08/24 06:53:13;;;;;;;11.43;8.50;;;;;;;26.54;71.89;99217.56;5009356;28;20350;-70
2022/08/24 06:55:45;;;;;;;9.57;8.47;;;;;;;26.65;71.43;99216.22;5009832;28;20193;-70
2022/08/24 06:58:12;;;;;;;15.50;9.27;;;;;;;26.71;71.29;99209.56;5024163;28;20255;-70
2022/08/24 07:00:38;;;;;;;11.20;8.83;;;;;;;26.80;70.83;99205.78;5013207;28;20256;-72
2022/08/24 07:03:05;;;;;;;12.90;8.57;;;;;;;26.83;70.41;99210.59;5010959;28;20295;-71
2022/08/24 07:05:32;;;;;;;10.90;9.17;;;;;;;26.92;70.47;99214.22;5009257;28;20622;-69
2022/08/24 07:08:01;;;;;;;13.60;9.57;;;;;;;26.95;70.11;99215.53;5010089;28;20202;-70
2022/08/24 07:10:28;;;;;;;13.77;8.67;;;;;;;26.97;69.94;99210.56;5010377;28;20205;-68
2022/08/24 07:12:55;;;;;;;8.97;8.10;;;;;;;26.97;69.99;99210.56;5009815;28;20198;-74
2022/08/24 07:15:22;;;;;;;12.40;8.13;;;;;;;27.11;68.94;99205.88;5010762;28;20673;-69
2022/08/24 07:17:50;;;;;;;9.53;8.30;;;;;;;27.29;69.13;99215.78;5013262;28;20253;-70
2022/08/24 07:20:17;;;;;;;11.33;8.83;;;;;;;27.40;67.69;99225.34;5010699;28;20236;-68
2022/08/24 07:22:44;;;;;;;22.87;8.93;;;;;;;27.44;68.04;99216.19;5008885;28;20239;-71
2022/08/24 07:25:13;;;;;;;8.77;7.97;;;;;;;27.57;66.54;99222.69;5010959;28;20232;-70
2022/08/24 07:27:39;;;;;;;10.30;7.47;;;;;;;27.67;66.25;99220.50;5007755;28;20201;-69
2022/08/24 07:30:08;;;;;;;12.33;8.37;;;;;;;27.78;65.97;99208.19;5005726;28;20237;-69
2022/08/24 07:32:35;;;;;;;11.53;8.23;;;;;;;27.93;65.73;99207.00;5011129;28;20585;-70
2022/08/24 07:35:02;;;;;;;8.93;7.70;;;;;;;28.08;64.95;99198.34;5012768;28;20190;-71
2022/08/24 07:37:28;;;;;;;15.67;7.93;;;;;;;28.18;64.39;99204.31;5012114;28;20198;-70
2022/08/24 07:39:56;;;;;;;10.43;7.20;;;;;;;28.29;63.17;99210.28;5012712;28;20205;-69
2022/08/24 07:42:25;;;;;;;12.87;7.40;;;;;;;28.38;63.00;99216.59;5012130;28;20236;-71
2022/08/24 07:44:51;;;;;;;10.33;6.83;;;;;;;28.62;61.96;99220.53;5012558;28;20303;-70
2022/08/24 07:47:18;;;;;;;9.30;6.90;;;;;;;28.87;61.09;99221.66;5012285;28;20625;-71
2022/08/24 07:49:45;;;;;;;10.17;7.20;;;;;;;28.89;60.57;99219.41;5012686;28;20225;-71
2022/08/24 07:52:12;;;;;;;8.20;6.93;;;;;;;28.85;61.01;99210.22;5012094;28;20252;-71
2022/08/24 07:54:39;;;;;;;7.07;6.50;;;;;;;28.83;61.35;99212.50;5012537;28;20201;-70
2022/08/24 07:57:05;;;;;;;8.57;6.93;;;;;;;28.88;61.27;99218.59;5011913;28;20194;-71
2022/08/24 07:59:34;;;;;;;8.60;6.70;;;;;;;29.14;60.22;99221.34;5011903;28;20237;-72
2022/08/24 08:02:01;;;;;;;8.30;7.20;;;;;;;29.34;59.61;99220.66;5012086;28;20244;-72
2022/08/24 08:04:28;;;;;;;11.03;7.43;;;;;;;29.51;58.83;99239.78;5012285;28;20253;-72
2022/08/24 08:06:55;;;;;;;10.73;6.70;;;;;;;29.47;58.67;99236.09;5011468;28;20744;-70
2022/08/24 08:09:22;;;;;;;7.63;7.10;;;;;;;29.46;58.09;99239.16;5011681;28;20206;-69
2022/08/24 08:11:48;;;;;;;11.77;8.00;;;;;;;29.34;58.71;99231.63;5012479;28;20194;-69
2022/08/24 08:14:15;;;;;;;8.33;6.70;;;;;;;29.27;58.92;99214.09;5011717;28;20233;-69
2022/08/24 08:16:43;;;;;;;8.13;7.30;;;;;;;29.33;59.04;99232.75;5012367;28;20202;-70
2022/08/24 08:19:10;;;;;;;12.03;6.87;;;;;;;29.29;59.22;99234.53;5011912;28;20248;-70
2022/08/24 08:24:25;;;;;;;9.10;8.20;;;;;;;29.24;59.21;99231.97;5011942;28;20812;-71
2022/08/24 08:26:53;;;;;;;9.80;8.27;;;;;;;29.19;60.09;99232.13;5011704;28;20252;-69
2022/08/24 08:29:19;;;;;;;14.13;7.70;;;;;;;29.17;60.16;99239.84;5011975;28;20299;-70
2022/08/24 08:31:48;;;;;;;13.07;7.87;;;;;;;29.08;60.18;99223.44;5011573;28;20194;-70
2022/08/24 08:34:15;;;;;;;18.30;8.03;;;;;;;28.97;60.09;99229.53;4997397;28;20202;-70
2022/08/24 08:36:42;;;;;;;15.20;8.17;;;;;;;28.74;60.43;99211.66;4992970;28;20195;-71
2022/08/24 08:39:11;;;;;;;10.57;8.50;;;;;;;28.62;61.34;99214.22;4991635;28;20658;-68
2022/08/24 08:42:04;;;;;;;12.00;8.17;;;;;;;28.47;62.86;99220.19;5004795;28;20260;-70
2022/08/24 08:44:48;;;;;;;8.93;7.93;;;;;;;28.35;62.73;99226.25;5011973;28;20213;-67
2022/08/24 08:47:42;;;;;;;11.83;8.67;;;;;;;28.23;63.15;99228.78;5012118;28;20189;-70
2022/08/24 08:50:15;;;;;;;13.57;8.30;;;;;;;28.24;63.85;99218.66;5012750;28;20220;-69
2022/08/24 08:53:21;;;;;;;31.63;9.13;;;;;;;28.31;64.62;99213.53;5011534;28;20963;-71
2022/08/24 08:55:53;;;;;;;12.47;8.20;;;;;;;28.25;64.22;99212.88;5011397;28;20201;-68
2022/08/24 08:58:42;;;;;;;17.00;9.30;;;;;;;28.30;64.35;99211.94;5011584;28;20182;-68
2022/08/24 09:01:19;;;;;;;8.57;7.50;;;;;;;28.47;63.45;99212.00;5012322;28;20182;-67
2022/08/24 09:04:17;;;;;;;12.33;7.77;;;;;;;28.68;63.89;99207.50;5014237;28;20212;-67
2022/08/24 09:06:58;;;;;;;13.33;8.20;;;;;;;28.93;63.40;99206.69;5016320;28;20256;-68
2022/08/24 09:09:55;;;;;;;10.87;8.10;;;;;;;29.31;62.32;99215.06;5015599;28;20186;-69
2022/08/24 09:12:31;;;;;;;16.50;7.97;;;;;;;29.68;60.39;99217.06;5009855;28;20198;-68
2022/08/24 09:15:09;;;;;;;20.20;8.40;;;;;;;29.88;58.99;99219.09;5015440;28;20193;-68
2022/08/24 09:17:59;;;;;;;58.27;11.27;;;;;;;30.06;58.95;99210.47;5016391;28;20193;-68
2022/08/24 09:20:48;;;;;;;12.20;7.00;;;;;;;30.44;57.65;99221.38;5015525;28;20538;-67
2022/08/24 09:23:23;;;;;;;8.00;7.17;;;;;;;30.66;54.85;99232.06;5015927;28;20190;-68
2022/08/24 09:26:02;;;;;;;7.03;6.40;;;;;;;30.84;54.72;99231.63;5015208;28;20189;-69
2022/08/24 09:28:42;;;;;;;10.00;6.80;;;;;;;31.16;54.27;99236.34;5015030;28;20276;-68
2022/08/24 09:31:41;;;;;;;9.13;6.67;;;;;;;31.49;52.11;99237.19;5015180;28;20197;-70
2022/08/24 09:34:18;;;;;;;8.13;6.80;;;;;;;31.80;51.01;99232.00;5015311;28;20197;-71
2022/08/24 09:37:04;;;;;;;7.60;6.83;;;;;;;32.16;50.10;99233.97;5015605;28;20186;-69
2022/08/24 09:39:52;;;;;;;7.40;6.70;;;;;;;32.43;49.76;99228.63;5014675;28;20186;-69
2022/08/24 09:42:59;;;;;;;10.23;6.40;;;;;;;32.62;48.16;99225.25;5013890;28;20674;-70
2022/08/24 09:45:45;;;;;;;10.17;6.57;;;;;;;32.74;47.08;99216.94;5014987;28;20224;-69
2022/08/24 09:48:45;;;;;;;6.37;5.87;;;;;;;32.59;45.95;99209.44;5015100;28;20240;-70
2022/08/24 09:51:38;;;;;;;8.33;5.90;;;;;;;32.60;46.66;99200.84;5015121;28;20193;-69
2022/08/24 09:54:41;;;;;;;8.60;6.10;;;;;;;32.74;46.22;99201.25;5001904;28;20202;-70
2022/08/24 09:57:23;;;;;;;7.00;5.63;;;;;;;32.91;45.66;99202.97;5014401;28;20194;-69
2022/08/24 10:00:06;;;;;;;5.57;5.03;;;;;;;33.13;44.79;99205.97;5014539;28;20186;-69
2022/08/24 10:02:54;;;;;;;5.75;5.45;;;;;;;33.17;43.19;99193.09;5014473;28;20182;-69
2022/08/24 10:05:31;;;;;;;6.67;5.90;;;;;;;33.21;44.52;99193.19;5014628;28;20272;-69
2022/08/24 10:08:04;;;;;;;14.27;5.45;;;;;;;33.16;43.50;99196.97;5014737;28;20244;-69
2022/08/24 10:10:44;;;;;;;6.63;5.43;;;;;;;33.20;43.18;99184.13;5014550;28;20239;-70
2022/08/24 10:13:23;;;;;;;7.77;5.00;;;;;;;33.26;41.56;99179.97;5013868;28;20197;-69
2022/08/24 10:16:17;;;;;;;7.07;5.07;;;;;;;33.33;42.42;99163.63;5014309;28;20732;-69
2022/08/24 10:18:58;;;;;;;6.80;4.72;;;;;;;33.30;43.02;99147.00;5014764;28;20642;-69
2022/08/24 10:21:38;;;;;;;7.55;5.00;;;;;;;33.40;41.72;99151.22;5015867;28;20190;-69
2022/08/24 10:24:24;;;;;;;11.90;5.53;;;;;;;33.26;42.07;99146.09;5013905;28;20210;-69
2022/08/24 10:27:24;;;;;;;5.07;4.68;;;;;;;33.12;41.69;99146.53;5014912;28;20182;-70
2022/08/24 10:30:33;;;;;;;7.27;5.03;;;;;;;33.26;43.15;99141.41;4963047;28;20697;-69
2022/08/24 10:33:10;;;;;;;9.32;5.18;;;;;;;33.29;42.58;99140.72;4995776;28;20714;-68
2022/08/24 10:35:45;;;;;;;5.30;4.55;;;;;;;33.37;41.92;99147.22;4994518;28;20641;-68
2022/08/24 10:42:04;;;;;;;11.00;4.88;;;;;;;33.58;42.02;99146.97;5013986;28;20325;-69
2022/08/24 10:44:55;;;;;;;8.63;4.50;;;;;;;33.60;40.76;99139.16;4994248;28;20211;-69
2022/08/24 10:47:25;;;;;;;6.53;4.22;;;;;;;33.58;41.19;99145.00;4994221;28;20207;-69
2022/08/24 10:50:27;;;;;;;9.48;4.47;;;;;;;33.72;41.07;99136.31;4994588;28;20183;-70
2022/08/24 10:53:14;;;;;;;10.10;4.55;;;;;;;33.80;39.81;99138.06;4994061;28;20191;-70
2022/08/24 10:55:42;;;;;;;8.07;4.57;;;;;;;33.86;38.42;99133.91;4993843;28;20182;-70
2022/08/24 10:58:42;;;;;;;18.38;5.15;;;;;;;33.84;39.01;99128.75;4993671;28;20347;-69
2022/08/24 11:01:26;;;;;;;19.05;4.93;;;;;;;33.77;40.36;99122.25;4993918;28;20199;-68
2022/08/24 11:04:06;;;;;;;8.98;4.18;;;;;;;33.65;39.65;99103.06;5008117;28;20289;-72
2022/08/24 11:06:37;;;;;;;7.85;5.00;;;;;;;33.66;40.89;99116.47;5012727;28;20193;-74
2022/08/24 11:09:08;;;;;;;25.83;5.85;;;;;;;33.57;40.27;99115.06;5014164;28;20240;-73
2022/08/24 11:11:37;;;;;;;9.98;5.00;;;;;;;33.44;41.22;99117.13;5013003;28;20190;-73
2022/08/24 11:14:08;;;;;;;7.95;4.60;;;;;;;33.25;41.99;99106.78;5013899;28;20194;-72
2022/08/24 11:16:37;;;;;;;6.53;4.05;;;;;;;33.33;41.38;99106.97;5031644;28;20197;-73
2022/08/24 11:19:09;;;;;;;7.70;4.05;;;;;;;33.35;41.18;99110.19;5032587;28;20194;-74
2022/08/24 11:21:48;;;;;;;11.50;5.15;;;;;;;33.33;41.90;99112.47;5032509;28;20281;-74
2022/08/24 11:24:30;;;;;;;10.43;4.35;;;;;;;33.36;41.06;99112.59;5033515;28;20205;-72
2022/08/24 11:27:01;;;;;;;6.22;4.55;;;;;;;33.41;40.82;99111.50;5032054;28;20226;-73
2022/08/24 11:29:50;;;;;;;6.40;4.88;;;;;;;33.35;40.61;99099.94;5032908;28;20713;-72
2022/08/24 11:32:26;;;;;;;14.37;4.93;;;;;;;33.20;41.70;99093.25;5032496;28;20642;-74
2022/08/24 11:34:53;;;;;;;10.45;4.43;;;;;;;33.22;40.68;99093.72;5012699;28;20201;-72
2022/08/24 11:37:30;;;;;;;6.47;4.95;;;;;;;33.25;41.56;99101.25;5012576;28;20205;-73
2022/08/24 11:39:57;;;;;;;10.30;4.20;;;;;;;33.27;42.11;99093.44;5012624;28;20196;-71
2022/08/24 11:42:35;;;;;;;11.70;5.23;;;;;;;33.26;41.49;99096.53;5012214;28;20194;-72
2022/08/24 11:45:10;;;;;;;6.37;4.83;;;;;;;33.17;41.42;99105.00;5012584;28;20256;-73
2022/08/24 11:47:58;;;;;;;12.37;5.13;;;;;;;33.18;42.23;99095.56;5012444;28;20236;-75
2022/08/24 11:50:35;;;;;;;8.73;4.50;;;;;;;33.26;41.15;99088.28;5012351;28;20186;-74
2022/08/24 11:53:24;;;;;;;10.53;4.67;;;;;;;33.16;40.47;99095.09;5012323;28;20288;-74
2022/08/24 11:56:02;;;;;;;10.35;4.75;;;;;;;33.28;40.45;99097.78;5012266;28;20606;-72
2022/08/24 11:58:40;;;;;;;6.97;4.72;;;;;;;33.14;41.08;99089.16;5012775;28;20193;-75